sensor_id;sensor_type;location;lat;lon;timestamp;P1;durP1;ratioP1;P2;durP2;ratioP2
26578;SDS011;14227;47.674;19.320;2023-09-12T00:01:07;68.35;;;32.28;;
26578;SDS011;14227;47.674;19.320;2023-09-12T00:03:33;47.10;;;27.70;;
26578;SDS011;14227;47.674;19.320;2023-09-12T00:06:00;43.92;;;27.45;;
26578;SDS011;14227;47.674;19.320;2023-09-12T00:08:27;38.60;;;24.42;;
26578;SDS011;14227;47.674;19.320;2023-09-12T00:10:59;48.13;;;26.73;;
26578;SDS011;14227;47.674;19.320;2023-09-12T00:13:29;41.78;;;25.85;;
26578;SDS011;14227;47.674;19.320;2023-09-12T00:15:56;32.65;;;21.30;;
26578;SDS011;14227;47.674;19.320;2023-09-12T00:18:22;63.15;;;30.95;;
26578;SDS011;14227;47.674;19.320;2023-09-12T00:20:47;63.78;;;31.73;;
26578;SDS011;14227;47.674;19.320;2023-09-12T00:23:14;64.78;;;34.33;;
26578;SDS011;14227;47.674;19.320;2023-09-12T00:25:40;64.38;;;36.05;;
26578;SDS011;14227;47.674;19.320;2023-09-12T00:28:06;81.50;;;38.03;;
26578;SDS011;14227;47.674;19.320;2023-09-12T00:30:31;65.63;;;32.72;;
26578;SDS011;14227;47.674;19.320;2023-09-12T00:32:57;77.18;;;35.20;;
26578;SDS011;14227;47.674;19.320;2023-09-12T00:35:23;63.50;;;32.08;;
26578;SDS011;14227;47.674;19.320;2023-09-12T00:37:48;77.57;;;33.83;;
26578;SDS011;14227;47.674;19.320;2023-09-12T00:40:14;56.22;;;31.27;;
26578;SDS011;14227;47.674;19.320;2023-09-12T00:42:40;59.90;;;32.45;;
26578;SDS011;14227;47.674;19.320;2023-09-12T00:45:06;69.07;;;33.75;;
26578;SDS011;14227;47.674;19.320;2023-09-12T00:47:32;77.47;;;37.33;;
26578;SDS011;14227;47.674;19.320;2023-09-12T00:49:58;54.80;;;31.80;;
26578;SDS011;14227;47.674;19.320;2023-09-12T00:52:26;65.88;;;33.83;;
26578;SDS011;14227;47.674;19.320;2023-09-12T00:54:53;55.42;;;31.77;;
26578;SDS011;14227;47.674;19.320;2023-09-12T00:57:20;49.03;;;30.48;;
26578;SDS011;14227;47.674;19.320;2023-09-12T00:59:47;46.15;;;28.70;;
26578;SDS011;14227;47.674;19.320;2023-09-12T01:02:13;49.15;;;29.63;;
26578;SDS011;14227;47.674;19.320;2023-09-12T01:04:39;56.22;;;30.27;;
26578;SDS011;14227;47.674;19.320;2023-09-12T01:07:06;70.50;;;32.53;;
26578;SDS011;14227;47.674;19.320;2023-09-12T01:09:32;58.45;;;32.47;;
26578;SDS011;14227;47.674;19.320;2023-09-12T01:11:59;50.33;;;28.30;;
26578;SDS011;14227;47.674;19.320;2023-09-12T01:14:27;36.20;;;21.67;;
26578;SDS011;14227;47.674;19.320;2023-09-12T01:16:57;37.55;;;22.77;;
26578;SDS011;14227;47.674;19.320;2023-09-12T01:19:23;44.80;;;24.27;;
26578;SDS011;14227;47.674;19.320;2023-09-12T01:22:03;61.65;;;30.63;;
26578;SDS011;14227;47.674;19.320;2023-09-12T01:27:47;48.90;;;28.53;;
26578;SDS011;14227;47.674;19.320;2023-09-12T01:30:17;42.22;;;21.70;;
26578;SDS011;14227;47.674;19.320;2023-09-12T01:32:45;48.20;;;27.08;;
26578;SDS011;14227;47.674;19.320;2023-09-12T01:35:12;38.00;;;22.17;;
26578;SDS011;14227;47.674;19.320;2023-09-12T01:37:37;52.55;;;27.92;;
26578;SDS011;14227;47.674;19.320;2023-09-12T01:40:03;50.42;;;28.08;;
26578;SDS011;14227;47.674;19.320;2023-09-12T01:42:31;52.47;;;27.13;;
26578;SDS011;14227;47.674;19.320;2023-09-12T01:45:03;56.53;;;30.48;;
26578;SDS011;14227;47.674;19.320;2023-09-12T01:47:30;39.05;;;22.35;;
26578;SDS011;14227;47.674;19.320;2023-09-12T01:49:58;44.92;;;27.00;;
26578;SDS011;14227;47.674;19.320;2023-09-12T01:52:25;50.60;;;25.95;;
26578;SDS011;14227;47.674;19.320;2023-09-12T01:54:52;42.47;;;22.25;;
26578;SDS011;14227;47.674;19.320;2023-09-12T01:57:19;42.65;;;22.88;;
26578;SDS011;14227;47.674;19.320;2023-09-12T01:59:46;47.85;;;28.35;;
26578;SDS011;14227;47.674;19.320;2023-09-12T02:02:18;55.90;;;28.63;;
26578;SDS011;14227;47.674;19.320;2023-09-12T02:07:41;42.30;;;23.75;;
26578;SDS011;14227;47.674;19.320;2023-09-12T02:10:07;60.85;;;29.52;;
26578;SDS011;14227;47.674;19.320;2023-09-12T02:12:33;34.97;;;21.13;;
26578;SDS011;14227;47.674;19.320;2023-09-12T02:14:59;33.33;;;21.15;;
26578;SDS011;14227;47.674;19.320;2023-09-12T02:17:25;63.20;;;30.65;;
26578;SDS011;14227;47.674;19.320;2023-09-12T02:19:50;38.40;;;23.20;;
26578;SDS011;14227;47.674;19.320;2023-09-12T02:22:16;41.47;;;23.27;;
26578;SDS011;14227;47.674;19.320;2023-09-12T02:24:42;33.25;;;18.42;;
26578;SDS011;14227;47.674;19.320;2023-09-12T02:27:07;48.60;;;25.17;;
26578;SDS011;14227;47.674;19.320;2023-09-12T02:29:33;41.65;;;26.20;;
26578;SDS011;14227;47.674;19.320;2023-09-12T02:31:59;66.32;;;31.00;;
26578;SDS011;14227;47.674;19.320;2023-09-12T02:34:25;63.03;;;31.13;;
26578;SDS011;14227;47.674;19.320;2023-09-12T02:36:51;58.28;;;29.30;;
26578;SDS011;14227;47.674;19.320;2023-09-12T02:39:17;51.97;;;27.63;;
26578;SDS011;14227;47.674;19.320;2023-09-12T02:41:42;35.58;;;19.33;;
26578;SDS011;14227;47.674;19.320;2023-09-12T02:44:08;43.38;;;23.65;;
26578;SDS011;14227;47.674;19.320;2023-09-12T02:46:34;37.63;;;22.10;;
26578;SDS011;14227;47.674;19.320;2023-09-12T02:49:02;58.20;;;27.90;;
26578;SDS011;14227;47.674;19.320;2023-09-12T02:51:27;46.97;;;25.90;;
26578;SDS011;14227;47.674;19.320;2023-09-12T02:53:53;35.88;;;19.27;;
26578;SDS011;14227;47.674;19.320;2023-09-12T02:56:19;45.88;;;25.27;;
26578;SDS011;14227;47.674;19.320;2023-09-12T02:58:48;46.10;;;23.75;;
26578;SDS011;14227;47.674;19.320;2023-09-12T03:01:15;43.25;;;24.10;;
26578;SDS011;14227;47.674;19.320;2023-09-12T03:03:41;49.20;;;28.08;;
26578;SDS011;14227;47.674;19.320;2023-09-12T03:06:11;61.58;;;32.42;;
26578;SDS011;14227;47.674;19.320;2023-09-12T03:08:37;39.83;;;22.77;;
26578;SDS011;14227;47.674;19.320;2023-09-12T03:11:04;37.05;;;23.83;;
26578;SDS011;14227;47.674;19.320;2023-09-12T03:13:29;38.70;;;22.25;;
26578;SDS011;14227;47.674;19.320;2023-09-12T03:15:55;32.50;;;20.58;;
26578;SDS011;14227;47.674;19.320;2023-09-12T03:18:21;29.80;;;20.13;;
26578;SDS011;14227;47.674;19.320;2023-09-12T03:20:46;34.58;;;20.65;;
26578;SDS011;14227;47.674;19.320;2023-09-12T03:23:12;43.78;;;25.48;;
26578;SDS011;14227;47.674;19.320;2023-09-12T03:25:38;52.38;;;27.88;;
26578;SDS011;14227;47.674;19.320;2023-09-12T03:28:05;75.00;;;31.25;;
26578;SDS011;14227;47.674;19.320;2023-09-12T03:30:32;44.35;;;25.23;;
26578;SDS011;14227;47.674;19.320;2023-09-12T03:32:59;41.42;;;21.88;;
26578;SDS011;14227;47.674;19.320;2023-09-12T03:35:25;38.10;;;21.80;;
26578;SDS011;14227;47.674;19.320;2023-09-12T03:37:51;32.53;;;17.77;;
26578;SDS011;14227;47.674;19.320;2023-09-12T03:40:17;40.35;;;20.45;;
26578;SDS011;14227;47.674;19.320;2023-09-12T03:42:42;61.42;;;28.00;;
26578;SDS011;14227;47.674;19.320;2023-09-12T03:45:08;43.90;;;22.80;;
26578;SDS011;14227;47.674;19.320;2023-09-12T03:47:34;53.97;;;25.30;;
26578;SDS011;14227;47.674;19.320;2023-09-12T03:50:00;65.07;;;29.58;;
26578;SDS011;14227;47.674;19.320;2023-09-12T03:52:25;44.35;;;23.80;;
26578;SDS011;14227;47.674;19.320;2023-09-12T03:54:51;44.95;;;24.10;;
26578;SDS011;14227;47.674;19.320;2023-09-12T03:57:17;44.72;;;23.70;;
26578;SDS011;14227;47.674;19.320;2023-09-12T03:59:42;40.42;;;23.33;;
26578;SDS011;14227;47.674;19.320;2023-09-12T04:02:08;34.90;;;20.10;;
26578;SDS011;14227;47.674;19.320;2023-09-12T04:04:34;63.30;;;27.00;;
26578;SDS011;14227;47.674;19.320;2023-09-12T04:06:59;57.58;;;29.85;;
26578;SDS011;14227;47.674;19.320;2023-09-12T04:09:26;68.68;;;32.63;;
26578;SDS011;14227;47.674;19.320;2023-09-12T04:11:52;74.38;;;35.80;;
26578;SDS011;14227;47.674;19.320;2023-09-12T04:14:18;72.13;;;35.47;;
26578;SDS011;14227;47.674;19.320;2023-09-12T04:16:46;88.00;;;35.75;;
26578;SDS011;14227;47.674;19.320;2023-09-12T04:19:11;53.25;;;29.67;;
26578;SDS011;14227;47.674;19.320;2023-09-12T04:21:38;61.55;;;32.00;;
26578;SDS011;14227;47.674;19.320;2023-09-12T04:24:04;42.38;;;22.85;;
26578;SDS011;14227;47.674;19.320;2023-09-12T04:26:31;39.00;;;19.92;;
26578;SDS011;14227;47.674;19.320;2023-09-12T04:28:56;33.80;;;20.92;;
26578;SDS011;14227;47.674;19.320;2023-09-12T04:31:22;38.45;;;20.23;;
26578;SDS011;14227;47.674;19.320;2023-09-12T04:33:50;44.10;;;24.10;;
26578;SDS011;14227;47.674;19.320;2023-09-12T04:36:16;69.55;;;31.77;;
26578;SDS011;14227;47.674;19.320;2023-09-12T04:38:42;45.10;;;26.30;;
26578;SDS011;14227;47.674;19.320;2023-09-12T04:41:08;58.78;;;29.17;;
26578;SDS011;14227;47.674;19.320;2023-09-12T04:43:34;45.60;;;23.98;;
26578;SDS011;14227;47.674;19.320;2023-09-12T04:46:00;40.30;;;20.65;;
26578;SDS011;14227;47.674;19.320;2023-09-12T04:48:26;41.13;;;22.30;;
26578;SDS011;14227;47.674;19.320;2023-09-12T04:50:51;74.78;;;27.95;;
26578;SDS011;14227;47.674;19.320;2023-09-12T04:53:17;109.25;;;31.48;;
26578;SDS011;14227;47.674;19.320;2023-09-12T04:55:43;103.97;;;33.85;;
26578;SDS011;14227;47.674;19.320;2023-09-12T04:58:08;60.05;;;25.65;;
26578;SDS011;14227;47.674;19.320;2023-09-12T05:00:34;64.20;;;23.55;;
26578;SDS011;14227;47.674;19.320;2023-09-12T05:03:01;37.17;;;19.70;;
26578;SDS011;14227;47.674;19.320;2023-09-12T05:05:28;30.67;;;17.52;;
26578;SDS011;14227;47.674;19.320;2023-09-12T05:07:54;56.10;;;21.40;;
26578;SDS011;14227;47.674;19.320;2023-09-12T05:10:20;49.55;;;18.75;;
26578;SDS011;14227;47.674;19.320;2023-09-12T05:12:45;55.10;;;25.83;;
26578;SDS011;14227;47.674;19.320;2023-09-12T05:15:11;40.83;;;19.95;;
26578;SDS011;14227;47.674;19.320;2023-09-12T05:17:37;51.50;;;24.13;;
26578;SDS011;14227;47.674;19.320;2023-09-12T05:20:03;56.95;;;26.17;;
26578;SDS011;14227;47.674;19.320;2023-09-12T05:22:32;34.25;;;18.65;;
26578;SDS011;14227;47.674;19.320;2023-09-12T05:24:57;50.70;;;20.05;;
26578;SDS011;14227;47.674;19.320;2023-09-12T05:27:23;49.72;;;22.30;;
26578;SDS011;14227;47.674;19.320;2023-09-12T05:29:48;47.47;;;25.73;;
26578;SDS011;14227;47.674;19.320;2023-09-12T05:32:14;59.05;;;25.75;;
26578;SDS011;14227;47.674;19.320;2023-09-12T05:34:41;46.17;;;25.88;;
26578;SDS011;14227;47.674;19.320;2023-09-12T05:37:07;37.67;;;18.67;;
26578;SDS011;14227;47.674;19.320;2023-09-12T05:39:33;56.47;;;19.65;;
26578;SDS011;14227;47.674;19.320;2023-09-12T05:41:58;41.15;;;19.20;;
26578;SDS011;14227;47.674;19.320;2023-09-12T05:44:24;43.47;;;22.67;;
26578;SDS011;14227;47.674;19.320;2023-09-12T05:46:50;40.63;;;23.38;;
26578;SDS011;14227;47.674;19.320;2023-09-12T05:49:15;45.05;;;21.55;;
26578;SDS011;14227;47.674;19.320;2023-09-12T05:51:41;41.42;;;21.65;;
26578;SDS011;14227;47.674;19.320;2023-09-12T05:54:07;37.80;;;16.33;;
26578;SDS011;14227;47.674;19.320;2023-09-12T05:56:33;33.42;;;15.13;;
26578;SDS011;14227;47.674;19.320;2023-09-12T05:58:59;30.65;;;13.95;;
26578;SDS011;14227;47.674;19.320;2023-09-12T06:01:25;32.17;;;13.07;;
26578;SDS011;14227;47.674;19.320;2023-09-12T06:03:51;23.85;;;12.15;;
26578;SDS011;14227;47.674;19.320;2023-09-12T06:06:16;27.05;;;12.65;;
26578;SDS011;14227;47.674;19.320;2023-09-12T06:08:42;35.60;;;13.68;;
26578;SDS011;14227;47.674;19.320;2023-09-12T06:11:08;35.28;;;11.85;;
26578;SDS011;14227;47.674;19.320;2023-09-12T06:13:34;31.80;;;12.32;;
26578;SDS011;14227;47.674;19.320;2023-09-12T06:16:02;36.80;;;11.30;;
26578;SDS011;14227;47.674;19.320;2023-09-12T06:18:29;27.30;;;12.13;;
26578;SDS011;14227;47.674;19.320;2023-09-12T06:20:56;42.67;;;11.38;;
26578;SDS011;14227;47.674;19.320;2023-09-12T06:23:23;34.60;;;11.32;;
26578;SDS011;14227;47.674;19.320;2023-09-12T06:36:05;18.33;;;8.88;;
26578;SDS011;14227;47.674;19.320;2023-09-12T06:48:02;18.58;;;8.13;;
26578;SDS011;14227;47.674;19.320;2023-09-12T06:50:29;18.63;;;8.32;;
26578;SDS011;14227;47.674;19.320;2023-09-12T06:55:59;15.98;;;7.55;;
26578;SDS011;14227;47.674;19.320;2023-09-12T06:58:25;12.13;;;7.80;;
26578;SDS011;14227;47.674;19.320;2023-09-12T07:00:51;23.63;;;7.28;;
26578;SDS011;14227;47.674;19.320;2023-09-12T07:03:16;14.20;;;7.43;;
26578;SDS011;14227;47.674;19.320;2023-09-12T07:05:43;24.98;;;7.22;;
26578;SDS011;14227;47.674;19.320;2023-09-12T07:08:10;17.02;;;7.88;;
26578;SDS011;14227;47.674;19.320;2023-09-12T07:13:58;14.05;;;6.75;;
26578;SDS011;14227;47.674;19.320;2023-09-12T07:16:24;12.88;;;7.30;;
26578;SDS011;14227;47.674;19.320;2023-09-12T07:18:49;16.10;;;7.18;;
26578;SDS011;14227;47.674;19.320;2023-09-12T07:21:15;17.15;;;7.43;;
26578;SDS011;14227;47.674;19.320;2023-09-12T07:23:41;19.42;;;7.53;;
26578;SDS011;14227;47.674;19.320;2023-09-12T07:26:11;17.75;;;6.75;;
26578;SDS011;14227;47.674;19.320;2023-09-12T07:29:00;15.85;;;7.18;;
26578;SDS011;14227;47.674;19.320;2023-09-12T07:31:27;19.48;;;6.40;;
26578;SDS011;14227;47.674;19.320;2023-09-12T07:33:53;21.80;;;6.47;;
26578;SDS011;14227;47.674;19.320;2023-09-12T07:36:19;26.13;;;7.72;;
26578;SDS011;14227;47.674;19.320;2023-09-12T07:38:45;14.45;;;6.68;;
26578;SDS011;14227;47.674;19.320;2023-09-12T07:41:12;15.90;;;6.43;;
26578;SDS011;14227;47.674;19.320;2023-09-12T07:43:37;24.25;;;6.93;;
26578;SDS011;14227;47.674;19.320;2023-09-12T07:46:03;23.60;;;6.70;;
26578;SDS011;14227;47.674;19.320;2023-09-12T07:48:29;22.83;;;6.68;;
26578;SDS011;14227;47.674;19.320;2023-09-12T07:50:55;16.30;;;6.75;;
26578;SDS011;14227;47.674;19.320;2023-09-12T07:53:20;23.70;;;7.47;;
26578;SDS011;14227;47.674;19.320;2023-09-12T07:55:47;15.85;;;6.32;;
26578;SDS011;14227;47.674;19.320;2023-09-12T07:58:16;18.85;;;6.80;;
26578;SDS011;14227;47.674;19.320;2023-09-12T08:00:46;13.10;;;6.47;;
26578;SDS011;14227;47.674;19.320;2023-09-12T08:03:12;18.33;;;7.03;;
26578;SDS011;14227;47.674;19.320;2023-09-12T08:05:38;28.25;;;13.60;;
26578;SDS011;14227;47.674;19.320;2023-09-12T08:08:04;15.85;;;6.13;;
26578;SDS011;14227;47.674;19.320;2023-09-12T08:10:29;24.20;;;7.30;;
26578;SDS011;14227;47.674;19.320;2023-09-12T08:12:55;20.05;;;6.18;;
26578;SDS011;14227;47.674;19.320;2023-09-12T08:15:21;21.38;;;6.28;;
26578;SDS011;14227;47.674;19.320;2023-09-12T08:17:46;22.60;;;6.53;;
26578;SDS011;14227;47.674;19.320;2023-09-12T08:20:16;11.30;;;5.93;;
26578;SDS011;14227;47.674;19.320;2023-09-12T08:22:45;19.52;;;6.03;;
26578;SDS011;14227;47.674;19.320;2023-09-12T08:28:38;13.25;;;6.28;;
26578;SDS011;14227;47.674;19.320;2023-09-12T08:31:03;13.98;;;6.10;;
26578;SDS011;14227;47.674;19.320;2023-09-12T08:33:29;16.70;;;5.97;;
26578;SDS011;14227;47.674;19.320;2023-09-12T08:35:55;14.90;;;5.60;;
26578;SDS011;14227;47.674;19.320;2023-09-12T08:38:20;17.90;;;5.63;;
26578;SDS011;14227;47.674;19.320;2023-09-12T08:40:49;21.40;;;6.15;;
26578;SDS011;14227;47.674;19.320;2023-09-12T08:43:16;13.48;;;5.30;;
26578;SDS011;14227;47.674;19.320;2023-09-12T08:45:42;13.48;;;5.38;;
26578;SDS011;14227;47.674;19.320;2023-09-12T08:48:11;27.63;;;6.32;;
26578;SDS011;14227;47.674;19.320;2023-09-12T08:50:38;20.20;;;5.90;;
26578;SDS011;14227;47.674;19.320;2023-09-12T08:53:04;21.55;;;5.75;;
26578;SDS011;14227;47.674;19.320;2023-09-12T08:55:31;14.75;;;6.25;;
26578;SDS011;14227;47.674;19.320;2023-09-12T09:00:29;14.93;;;7.03;;
26578;SDS011;14227;47.674;19.320;2023-09-12T09:02:55;16.27;;;6.28;;
26578;SDS011;14227;47.674;19.320;2023-09-12T09:05:21;19.17;;;5.13;;
26578;SDS011;14227;47.674;19.320;2023-09-12T09:07:48;22.45;;;5.45;;
26578;SDS011;14227;47.674;19.320;2023-09-12T09:10:16;22.13;;;5.25;;
26578;SDS011;14227;47.674;19.320;2023-09-12T09:12:43;16.00;;;5.07;;
26578;SDS011;14227;47.674;19.320;2023-09-12T09:15:27;23.70;;;5.13;;
26578;SDS011;14227;47.674;19.320;2023-09-12T09:17:54;17.90;;;5.22;;
26578;SDS011;14227;47.674;19.320;2023-09-12T09:22:55;11.25;;;4.80;;
26578;SDS011;14227;47.674;19.320;2023-09-12T09:25:26;11.48;;;5.32;;
26578;SDS011;14227;47.674;19.320;2023-09-12T09:27:52;15.85;;;5.25;;
26578;SDS011;14227;47.674;19.320;2023-09-12T09:30:17;17.02;;;4.50;;
26578;SDS011;14227;47.674;19.320;2023-09-12T09:32:47;12.20;;;4.13;;
26578;SDS011;14227;47.674;19.320;2023-09-12T09:35:18;12.30;;;4.22;;
26578;SDS011;14227;47.674;19.320;2023-09-12T09:37:44;15.10;;;4.38;;
26578;SDS011;14227;47.674;19.320;2023-09-12T09:40:10;15.75;;;4.32;;
26578;SDS011;14227;47.674;19.320;2023-09-12T09:42:35;8.55;;;3.88;;
26578;SDS011;14227;47.674;19.320;2023-09-12T09:45:02;12.18;;;4.55;;
26578;SDS011;14227;47.674;19.320;2023-09-12T09:47:28;16.15;;;3.88;;
26578;SDS011;14227;47.674;19.320;2023-09-12T09:49:54;14.15;;;3.97;;
26578;SDS011;14227;47.674;19.320;2023-09-12T09:52:27;8.38;;;3.45;;
26578;SDS011;14227;47.674;19.320;2023-09-12T09:54:53;13.00;;;3.90;;
26578;SDS011;14227;47.674;19.320;2023-09-12T09:57:18;11.30;;;4.35;;
26578;SDS011;14227;47.674;19.320;2023-09-12T09:59:48;10.07;;;3.95;;
26578;SDS011;14227;47.674;19.320;2023-09-12T10:02:18;12.68;;;3.80;;
26578;SDS011;14227;47.674;19.320;2023-09-12T10:04:47;10.25;;;5.10;;
26578;SDS011;14227;47.674;19.320;2023-09-12T10:07:15;10.23;;;3.47;;
26578;SDS011;14227;47.674;19.320;2023-09-12T10:09:41;8.35;;;3.33;;
26578;SDS011;14227;47.674;19.320;2023-09-12T10:12:09;11.65;;;3.90;;
26578;SDS011;14227;47.674;19.320;2023-09-12T10:14:35;11.63;;;3.60;;
26578;SDS011;14227;47.674;19.320;2023-09-12T10:17:05;9.27;;;3.88;;
26578;SDS011;14227;47.674;19.320;2023-09-12T10:19:54;12.68;;;3.42;;
26578;SDS011;14227;47.674;19.320;2023-09-12T10:24:49;6.63;;;3.30;;
26578;SDS011;14227;47.674;19.320;2023-09-12T10:27:15;10.18;;;3.78;;
26578;SDS011;14227;47.674;19.320;2023-09-12T10:29:43;6.72;;;3.28;;
26578;SDS011;14227;47.674;19.320;2023-09-12T10:32:12;12.23;;;3.90;;
26578;SDS011;14227;47.674;19.320;2023-09-12T10:34:39;8.43;;;3.00;;
26578;SDS011;14227;47.674;19.320;2023-09-12T10:37:10;10.35;;;3.72;;
26578;SDS011;14227;47.674;19.320;2023-09-12T10:39:40;7.78;;;3.50;;
26578;SDS011;14227;47.674;19.320;2023-09-12T10:42:08;11.75;;;4.50;;
26578;SDS011;14227;47.674;19.320;2023-09-12T10:44:34;6.90;;;3.70;;
26578;SDS011;14227;47.674;19.320;2023-09-12T10:47:00;10.07;;;3.67;;
26578;SDS011;14227;47.674;19.320;2023-09-12T10:49:26;8.38;;;3.30;;
26578;SDS011;14227;47.674;19.320;2023-09-12T10:51:53;11.45;;;3.60;;
26578;SDS011;14227;47.674;19.320;2023-09-12T10:54:26;10.95;;;3.20;;
26578;SDS011;14227;47.674;19.320;2023-09-12T10:57:08;8.32;;;3.45;;
26578;SDS011;14227;47.674;19.320;2023-09-12T11:02:39;8.30;;;3.50;;
26578;SDS011;14227;47.674;19.320;2023-09-12T11:05:06;10.15;;;3.83;;
26578;SDS011;14227;47.674;19.320;2023-09-12T11:07:51;6.47;;;3.08;;
26578;SDS011;14227;47.674;19.320;2023-09-12T11:10:25;10.52;;;3.33;;
26578;SDS011;14227;47.674;19.320;2023-09-12T11:12:51;13.35;;;3.88;;
26578;SDS011;14227;47.674;19.320;2023-09-12T11:15:22;9.95;;;3.35;;
26578;SDS011;14227;47.674;19.320;2023-09-12T11:17:49;7.85;;;3.45;;
26578;SDS011;14227;47.674;19.320;2023-09-12T11:20:24;9.25;;;3.70;;
26578;SDS011;14227;47.674;19.320;2023-09-12T11:22:50;5.43;;;3.28;;
26578;SDS011;14227;47.674;19.320;2023-09-12T11:25:18;13.68;;;3.78;;
26578;SDS011;14227;47.674;19.320;2023-09-12T11:27:45;12.10;;;3.78;;
26578;SDS011;14227;47.674;19.320;2023-09-12T11:30:18;10.27;;;3.72;;
26578;SDS011;14227;47.674;19.320;2023-09-12T11:32:48;12.20;;;3.33;;
26578;SDS011;14227;47.674;19.320;2023-09-12T11:35:16;13.73;;;3.35;;
26578;SDS011;14227;47.674;19.320;2023-09-12T11:37:54;10.38;;;3.50;;
26578;SDS011;14227;47.674;19.320;2023-09-12T11:42:59;8.18;;;3.60;;
26578;SDS011;14227;47.674;19.320;2023-09-12T11:45:25;10.18;;;3.55;;
26578;SDS011;14227;47.674;19.320;2023-09-12T11:47:53;13.18;;;3.90;;
26578;SDS011;14227;47.674;19.320;2023-09-12T11:50:31;10.45;;;4.10;;
26578;SDS011;14227;47.674;19.320;2023-09-12T11:53:02;10.57;;;3.50;;
26578;SDS011;14227;47.674;19.320;2023-09-12T11:55:32;9.57;;;3.45;;
26578;SDS011;14227;47.674;19.320;2023-09-12T11:58:18;15.38;;;3.83;;
26578;SDS011;14227;47.674;19.320;2023-09-12T12:00:48;7.80;;;3.60;;
26578;SDS011;14227;47.674;19.320;2023-09-12T12:03:16;10.23;;;3.83;;
26578;SDS011;14227;47.674;19.320;2023-09-12T12:05:43;10.15;;;3.50;;
26578;SDS011;14227;47.674;19.320;2023-09-12T12:08:12;24.05;;;3.70;;
26578;SDS011;14227;47.674;19.320;2023-09-12T12:10:39;12.93;;;3.88;;
26578;SDS011;14227;47.674;19.320;2023-09-12T12:13:06;12.70;;;3.47;;
26578;SDS011;14227;47.674;19.320;2023-09-12T12:15:41;9.75;;;3.60;;
26578;SDS011;14227;47.674;19.320;2023-09-12T12:18:07;13.02;;;3.60;;
26578;SDS011;14227;47.674;19.320;2023-09-12T12:20:33;9.05;;;3.63;;
26578;SDS011;14227;47.674;19.320;2023-09-12T12:22:59;16.05;;;4.18;;
26578;SDS011;14227;47.674;19.320;2023-09-12T12:25:25;14.73;;;3.95;;
26578;SDS011;14227;47.674;19.320;2023-09-12T12:27:50;13.70;;;3.60;;
26578;SDS011;14227;47.674;19.320;2023-09-12T12:30:17;9.73;;;3.40;;
26578;SDS011;14227;47.674;19.320;2023-09-12T12:32:45;12.30;;;3.83;;
26578;SDS011;14227;47.674;19.320;2023-09-12T12:35:18;12.05;;;4.00;;
26578;SDS011;14227;47.674;19.320;2023-09-12T12:37:45;12.77;;;3.60;;
26578;SDS011;14227;47.674;19.320;2023-09-12T12:40:12;15.88;;;3.92;;
26578;SDS011;14227;47.674;19.320;2023-09-12T12:42:39;11.05;;;4.00;;
26578;SDS011;14227;47.674;19.320;2023-09-12T12:45:17;15.95;;;4.00;;
26578;SDS011;14227;47.674;19.320;2023-09-12T12:47:44;14.80;;;3.85;;
26578;SDS011;14227;47.674;19.320;2023-09-12T12:50:13;13.55;;;4.60;;
26578;SDS011;14227;47.674;19.320;2023-09-12T12:52:40;15.85;;;4.28;;
26578;SDS011;14227;47.674;19.320;2023-09-12T12:55:07;21.35;;;4.70;;
26578;SDS011;14227;47.674;19.320;2023-09-12T12:57:37;18.35;;;4.10;;
26578;SDS011;14227;47.674;19.320;2023-09-12T13:00:07;19.27;;;4.85;;
26578;SDS011;14227;47.674;19.320;2023-09-12T13:02:37;20.70;;;4.93;;
26578;SDS011;14227;47.674;19.320;2023-09-12T13:05:04;14.82;;;4.32;;
26578;SDS011;14227;47.674;19.320;2023-09-12T13:07:36;22.90;;;4.70;;
26578;SDS011;14227;47.674;19.320;2023-09-12T13:10:02;21.67;;;4.60;;
26578;SDS011;14227;47.674;19.320;2023-09-12T13:12:29;27.50;;;4.75;;
26578;SDS011;14227;47.674;19.320;2023-09-12T13:14:55;17.20;;;4.38;;
26578;SDS011;14227;47.674;19.320;2023-09-12T13:17:21;18.13;;;4.20;;
26578;SDS011;14227;47.674;19.320;2023-09-12T13:19:47;14.18;;;4.32;;
26578;SDS011;14227;47.674;19.320;2023-09-12T13:22:12;22.20;;;4.78;;
26578;SDS011;14227;47.674;19.320;2023-09-12T13:24:38;21.92;;;5.10;;
26578;SDS011;14227;47.674;19.320;2023-09-12T13:27:04;22.02;;;5.03;;
26578;SDS011;14227;47.674;19.320;2023-09-12T13:29:30;20.98;;;5.15;;
26578;SDS011;14227;47.674;19.320;2023-09-12T13:31:55;14.18;;;4.65;;
26578;SDS011;14227;47.674;19.320;2023-09-12T13:34:21;25.00;;;4.03;;
26578;SDS011;14227;47.674;19.320;2023-09-12T13:36:47;17.10;;;4.50;;
26578;SDS011;14227;47.674;19.320;2023-09-12T13:39:13;23.30;;;5.00;;
26578;SDS011;14227;47.674;19.320;2023-09-12T13:41:39;20.30;;;4.95;;
26578;SDS011;14227;47.674;19.320;2023-09-12T13:44:06;20.75;;;5.05;;
26578;SDS011;14227;47.674;19.320;2023-09-12T13:46:32;14.10;;;4.90;;
26578;SDS011;14227;47.674;19.320;2023-09-12T13:48:57;15.40;;;4.63;;
26578;SDS011;14227;47.674;19.320;2023-09-12T13:51:28;27.48;;;5.70;;
26578;SDS011;14227;47.674;19.320;2023-09-12T13:53:54;18.00;;;5.38;;
26578;SDS011;14227;47.674;19.320;2023-09-12T13:56:20;20.90;;;4.80;;
26578;SDS011;14227;47.674;19.320;2023-09-12T13:58:47;15.65;;;5.00;;
26578;SDS011;14227;47.674;19.320;2023-09-12T14:01:12;35.30;;;5.28;;
26578;SDS011;14227;47.674;19.320;2023-09-12T14:03:38;38.88;;;5.63;;
26578;SDS011;14227;47.674;19.320;2023-09-12T14:06:03;25.95;;;5.43;;
26578;SDS011;14227;47.674;19.320;2023-09-12T14:08:29;20.30;;;5.85;;
26578;SDS011;14227;47.674;19.320;2023-09-12T14:10:55;22.75;;;4.45;;
26578;SDS011;14227;47.674;19.320;2023-09-12T14:13:20;18.55;;;5.22;;
26578;SDS011;14227;47.674;19.320;2023-09-12T14:15:46;17.48;;;5.15;;
26578;SDS011;14227;47.674;19.320;2023-09-12T14:18:14;30.98;;;5.68;;
26578;SDS011;14227;47.674;19.320;2023-09-12T14:20:40;23.42;;;5.30;;
26578;SDS011;14227;47.674;19.320;2023-09-12T14:23:06;18.38;;;5.00;;
26578;SDS011;14227;47.674;19.320;2023-09-12T14:25:32;20.10;;;5.55;;
26578;SDS011;14227;47.674;19.320;2023-09-12T14:27:57;22.38;;;5.72;;
26578;SDS011;14227;47.674;19.320;2023-09-12T14:30:23;21.67;;;4.78;;
26578;SDS011;14227;47.674;19.320;2023-09-12T14:32:51;22.40;;;4.93;;
26578;SDS011;14227;47.674;19.320;2023-09-12T14:35:17;25.88;;;5.93;;
26578;SDS011;14227;47.674;19.320;2023-09-12T14:37:42;20.45;;;5.75;;
26578;SDS011;14227;47.674;19.320;2023-09-12T14:40:08;22.80;;;5.35;;
26578;SDS011;14227;47.674;19.320;2023-09-12T14:42:36;27.20;;;5.07;;
26578;SDS011;14227;47.674;19.320;2023-09-12T14:45:01;30.02;;;6.03;;
26578;SDS011;14227;47.674;19.320;2023-09-12T14:47:27;19.65;;;4.70;;
26578;SDS011;14227;47.674;19.320;2023-09-12T14:49:55;18.73;;;4.80;;
26578;SDS011;14227;47.674;19.320;2023-09-12T14:52:20;27.30;;;5.60;;
26578;SDS011;14227;47.674;19.320;2023-09-12T14:54:46;28.35;;;5.38;;
26578;SDS011;14227;47.674;19.320;2023-09-12T14:57:12;16.92;;;5.38;;
26578;SDS011;14227;47.674;19.320;2023-09-12T14:59:37;18.27;;;5.70;;
26578;SDS011;14227;47.674;19.320;2023-09-12T15:02:03;21.80;;;5.43;;
26578;SDS011;14227;47.674;19.320;2023-09-12T15:04:29;18.17;;;5.13;;